createdAt,value
2022-12-28T00:01:54.301Z,4.53
2022-12-28T00:04:22.425Z,4.25
2022-12-28T00:06:50.869Z,4.25
2022-12-28T00:09:18.868Z,4.20
2022-12-28T00:11:47.242Z,4.10
2022-12-28T00:14:16.800Z,4.22
2022-12-28T00:16:46.075Z,3.88
2022-12-28T00:19:15.757Z,4.80
2022-12-28T00:21:44.216Z,4.80
2022-12-28T00:24:19.391Z,4.22
2022-12-28T00:26:47.551Z,4.53
2022-12-28T00:29:17.275Z,4.55
2022-12-28T00:31:46.262Z,4.57
2022-12-28T00:34:14.761Z,4.22
2022-12-28T00:37:09.573Z,5.40
2022-12-28T00:39:30.998Z,3.80
2022-12-28T00:41:59.023Z,4.43
2022-12-28T00:44:28.550Z,4.90
2022-12-28T00:46:56.737Z,4.40
2022-12-28T00:49:24.700Z,5.00
2022-12-28T00:51:53.831Z,4.90
2022-12-28T00:54:21.892Z,4.78
2022-12-28T00:56:50.086Z,5.65
2022-12-28T00:59:18.194Z,4.75
2022-12-28T01:01:47.697Z,5.32
2022-12-28T01:04:15.948Z,7.15
2022-12-28T01:06:43.901Z,4.75
2022-12-28T01:09:12.117Z,5.25
2022-12-28T01:11:40.203Z,5.40
2022-12-28T01:14:11.114Z,4.50
2022-12-28T01:16:39.085Z,4.72
2022-12-28T01:19:09.209Z,5.18
2022-12-28T01:21:38.132Z,5.07
2022-12-28T01:24:08.098Z,5.72
2022-12-28T01:26:36.346Z,5.38
2022-12-28T01:29:04.909Z,5.18
2022-12-28T01:31:33.331Z,5.28
2022-12-28T01:34:01.714Z,5.45
2022-12-28T01:36:34.955Z,5.10
2022-12-28T01:39:06.147Z,5.15
2022-12-28T01:41:38.570Z,5.47
2022-12-28T01:44:43.251Z,5.20
2022-12-28T01:49:44.152Z,6.20
2022-12-28T01:52:17.631Z,5.43
2022-12-28T01:54:47.922Z,5.65
2022-12-28T01:57:17.202Z,6.05
2022-12-28T01:59:51.750Z,5.35
2022-12-28T02:02:20.113Z,6.38
2022-12-28T02:04:49.255Z,5.28
2022-12-28T02:07:28.300Z,5.40
2022-12-28T02:10:42.803Z,5.68
2022-12-28T02:12:46.259Z,5.90
2022-12-28T02:15:18.360Z,6.03
2022-12-28T02:17:51.495Z,5.63
2022-12-28T02:20:19.941Z,6.38
2022-12-28T02:23:28.899Z,7.43
2022-12-28T02:26:50.833Z,6.03
2022-12-28T02:29:46.768Z,5.90
2022-12-28T02:32:31.047Z,5.65
2022-12-28T02:35:06.632Z,5.93
2022-12-28T02:37:39.670Z,5.90
2022-12-28T02:40:14.226Z,6.10
2022-12-28T02:42:44.459Z,6.28
2022-12-28T02:48:22.397Z,5.78
2022-12-28T02:50:57.992Z,5.72
2022-12-28T02:53:46.277Z,6.15
2022-12-28T02:56:27.859Z,6.20
2022-12-28T02:59:24.500Z,5.90
2022-12-28T03:02:16.156Z,6.40
2022-12-28T03:05:02.927Z,6.20
